sensor_id;sensor_type;location;lat;lon;timestamp;P1;durP1;ratioP1;P2;durP2;ratioP2
36189;SDS011;22232;50.914;13.858;2023-10-19T00:02:15;13.48;;;7.35;;
36189;SDS011;22232;50.914;13.858;2023-10-19T00:04:46;13.70;;;7.53;;
36189;SDS011;22232;50.914;13.858;2023-10-19T00:07:14;14.43;;;7.13;;
36189;SDS011;22232;50.914;13.858;2023-10-19T00:09:43;13.65;;;7.07;;
36189;SDS011;22232;50.914;13.858;2023-10-19T00:12:19;10.52;;;6.85;;
36189;SDS011;22232;50.914;13.858;2023-10-19T00:14:49;15.55;;;7.60;;
36189;SDS011;22232;50.914;13.858;2023-10-19T00:17:16;18.13;;;8.20;;
36189;SDS011;22232;50.914;13.858;2023-10-19T00:19:48;14.40;;;7.55;;
36189;SDS011;22232;50.914;13.858;2023-10-19T00:22:32;14.65;;;7.88;;
36189;SDS011;22232;50.914;13.858;2023-10-19T00:25:03;14.70;;;7.03;;
36189;SDS011;22232;50.914;13.858;2023-10-19T00:27:31;17.35;;;6.43;;
36189;SDS011;22232;50.914;13.858;2023-10-19T00:29:59;13.93;;;7.00;;
36189;SDS011;22232;50.914;13.858;2023-10-19T00:32:33;20.05;;;7.75;;
36189;SDS011;22232;50.914;13.858;2023-10-19T00:35:06;18.65;;;7.90;;
36189;SDS011;22232;50.914;13.858;2023-10-19T00:37:55;19.77;;;7.47;;
36189;SDS011;22232;50.914;13.858;2023-10-19T00:40:39;13.68;;;6.97;;
36189;SDS011;22232;50.914;13.858;2023-10-19T00:43:08;17.52;;;7.63;;
36189;SDS011;22232;50.914;13.858;2023-10-19T00:45:39;14.82;;;7.70;;
36189;SDS011;22232;50.914;13.858;2023-10-19T00:48:07;12.48;;;7.30;;
36189;SDS011;22232;50.914;13.858;2023-10-19T00:50:38;16.15;;;7.93;;
36189;SDS011;22232;50.914;13.858;2023-10-19T00:53:06;15.32;;;7.93;;
36189;SDS011;22232;50.914;13.858;2023-10-19T00:55:35;18.38;;;8.32;;
36189;SDS011;22232;50.914;13.858;2023-10-19T00:58:03;19.27;;;7.82;;
36189;SDS011;22232;50.914;13.858;2023-10-19T01:00:36;17.98;;;7.85;;
36189;SDS011;22232;50.914;13.858;2023-10-19T01:05:44;15.27;;;7.93;;
36189;SDS011;22232;50.914;13.858;2023-10-19T01:08:15;14.95;;;7.63;;
36189;SDS011;22232;50.914;13.858;2023-10-19T01:11:01;14.45;;;7.43;;
36189;SDS011;22232;50.914;13.858;2023-10-19T01:13:31;15.90;;;8.00;;
36189;SDS011;22232;50.914;13.858;2023-10-19T01:16:02;13.20;;;7.97;;
36189;SDS011;22232;50.914;13.858;2023-10-19T01:18:31;15.48;;;8.50;;
36189;SDS011;22232;50.914;13.858;2023-10-19T01:20:59;15.77;;;8.27;;
36189;SDS011;22232;50.914;13.858;2023-10-19T01:26:02;14.40;;;7.65;;
36189;SDS011;22232;50.914;13.858;2023-10-19T01:28:36;13.90;;;8.50;;
36189;SDS011;22232;50.914;13.858;2023-10-19T01:31:09;14.60;;;8.48;;
36189;SDS011;22232;50.914;13.858;2023-10-19T01:33:58;13.77;;;8.52;;
36189;SDS011;22232;50.914;13.858;2023-10-19T01:36:28;14.07;;;8.23;;
36189;SDS011;22232;50.914;13.858;2023-10-19T01:38:59;13.98;;;8.20;;
36189;SDS011;22232;50.914;13.858;2023-10-19T01:41:37;16.08;;;9.02;;
36189;SDS011;22232;50.914;13.858;2023-10-19T01:44:08;15.77;;;8.93;;
36189;SDS011;22232;50.914;13.858;2023-10-19T01:46:41;13.73;;;8.77;;
36189;SDS011;22232;50.914;13.858;2023-10-19T01:49:13;14.32;;;8.77;;
36189;SDS011;22232;50.914;13.858;2023-10-19T01:51:41;15.85;;;8.85;;
36189;SDS011;22232;50.914;13.858;2023-10-19T01:54:11;16.80;;;9.38;;
36189;SDS011;22232;50.914;13.858;2023-10-19T01:56:38;16.65;;;9.32;;
36189;SDS011;22232;50.914;13.858;2023-10-19T01:59:08;16.95;;;8.93;;
36189;SDS011;22232;50.914;13.858;2023-10-19T02:01:36;16.83;;;9.27;;
36189;SDS011;22232;50.914;13.858;2023-10-19T02:04:05;17.55;;;9.68;;
36189;SDS011;22232;50.914;13.858;2023-10-19T02:06:37;16.48;;;8.70;;
36189;SDS011;22232;50.914;13.858;2023-10-19T02:09:07;17.50;;;9.45;;
36189;SDS011;22232;50.914;13.858;2023-10-19T02:11:50;16.95;;;9.02;;
36189;SDS011;22232;50.914;13.858;2023-10-19T02:14:28;16.90;;;9.18;;
36189;SDS011;22232;50.914;13.858;2023-10-19T02:16:58;17.67;;;9.70;;
36189;SDS011;22232;50.914;13.858;2023-10-19T02:19:28;22.20;;;9.77;;
36189;SDS011;22232;50.914;13.858;2023-10-19T02:21:57;17.13;;;9.63;;
36189;SDS011;22232;50.914;13.858;2023-10-19T02:24:26;15.95;;;9.48;;
36189;SDS011;22232;50.914;13.858;2023-10-19T02:26:54;21.00;;;9.95;;
36189;SDS011;22232;50.914;13.858;2023-10-19T02:29:23;14.98;;;9.73;;
36189;SDS011;22232;50.914;13.858;2023-10-19T02:31:55;14.55;;;9.00;;
36189;SDS011;22232;50.914;13.858;2023-10-19T02:34:24;17.38;;;10.27;;
36189;SDS011;22232;50.914;13.858;2023-10-19T02:36:51;17.67;;;9.85;;
36189;SDS011;22232;50.914;13.858;2023-10-19T02:39:20;19.40;;;9.95;;
36189;SDS011;22232;50.914;13.858;2023-10-19T02:41:52;20.13;;;10.23;;
36189;SDS011;22232;50.914;13.858;2023-10-19T02:44:21;16.05;;;10.48;;
36189;SDS011;22232;50.914;13.858;2023-10-19T02:46:51;22.80;;;11.38;;
36189;SDS011;22232;50.914;13.858;2023-10-19T02:49:21;17.02;;;10.70;;
36189;SDS011;22232;50.914;13.858;2023-10-19T02:51:50;17.40;;;11.02;;
36189;SDS011;22232;50.914;13.858;2023-10-19T02:54:21;18.85;;;10.40;;
36189;SDS011;22232;50.914;13.858;2023-10-19T02:56:51;17.77;;;10.60;;
36189;SDS011;22232;50.914;13.858;2023-10-19T02:59:21;18.90;;;11.18;;
36189;SDS011;22232;50.914;13.858;2023-10-19T03:01:55;19.88;;;11.60;;
36189;SDS011;22232;50.914;13.858;2023-10-19T03:04:29;18.13;;;11.02;;
36189;SDS011;22232;50.914;13.858;2023-10-19T03:06:58;22.90;;;11.93;;
36189;SDS011;22232;50.914;13.858;2023-10-19T03:09:25;21.52;;;11.80;;
36189;SDS011;22232;50.914;13.858;2023-10-19T03:11:53;18.90;;;11.95;;
36189;SDS011;22232;50.914;13.858;2023-10-19T03:14:26;19.05;;;10.57;;
36189;SDS011;22232;50.914;13.858;2023-10-19T03:16:54;19.70;;;11.43;;
36189;SDS011;22232;50.914;13.858;2023-10-19T03:19:23;24.73;;;13.07;;
36189;SDS011;22232;50.914;13.858;2023-10-19T03:21:53;24.38;;;12.68;;
36189;SDS011;22232;50.914;13.858;2023-10-19T03:24:23;27.50;;;14.40;;
36189;SDS011;22232;50.914;13.858;2023-10-19T03:27:03;29.27;;;15.25;;
36189;SDS011;22232;50.914;13.858;2023-10-19T03:29:52;26.25;;;15.30;;
36189;SDS011;22232;50.914;13.858;2023-10-19T03:32:24;26.35;;;16.02;;
36189;SDS011;22232;50.914;13.858;2023-10-19T03:34:59;32.53;;;16.27;;
36189;SDS011;22232;50.914;13.858;2023-10-19T03:37:29;28.92;;;16.42;;
36189;SDS011;22232;50.914;13.858;2023-10-19T03:39:58;30.08;;;17.08;;
36189;SDS011;22232;50.914;13.858;2023-10-19T03:42:26;29.40;;;16.55;;
36189;SDS011;22232;50.914;13.858;2023-10-19T03:44:59;28.42;;;16.02;;
36189;SDS011;22232;50.914;13.858;2023-10-19T03:47:29;28.92;;;17.23;;
36189;SDS011;22232;50.914;13.858;2023-10-19T03:52:35;27.40;;;16.95;;
36189;SDS011;22232;50.914;13.858;2023-10-19T03:55:06;31.50;;;18.52;;
36189;SDS011;22232;50.914;13.858;2023-10-19T03:57:38;32.10;;;18.70;;
36189;SDS011;22232;50.914;13.858;2023-10-19T04:00:14;30.60;;;17.05;;
36189;SDS011;22232;50.914;13.858;2023-10-19T04:02:45;31.08;;;17.17;;
36189;SDS011;22232;50.914;13.858;2023-10-19T04:05:14;33.80;;;19.38;;
36189;SDS011;22232;50.914;13.858;2023-10-19T04:07:50;31.00;;;19.48;;
36189;SDS011;22232;50.914;13.858;2023-10-19T04:10:32;34.88;;;19.75;;
36189;SDS011;22232;50.914;13.858;2023-10-19T04:13:03;32.42;;;20.85;;
36189;SDS011;22232;50.914;13.858;2023-10-19T04:15:31;33.10;;;20.02;;
36189;SDS011;22232;50.914;13.858;2023-10-19T04:18:05;33.33;;;20.67;;
36189;SDS011;22232;50.914;13.858;2023-10-19T04:20:39;33.50;;;21.38;;
36189;SDS011;22232;50.914;13.858;2023-10-19T04:23:23;35.75;;;22.48;;
36189;SDS011;22232;50.914;13.858;2023-10-19T04:25:55;33.85;;;22.55;;
36189;SDS011;22232;50.914;13.858;2023-10-19T04:28:31;38.75;;;22.33;;
36189;SDS011;22232;50.914;13.858;2023-10-19T04:31:05;33.03;;;21.00;;
36189;SDS011;22232;50.914;13.858;2023-10-19T04:33:33;32.90;;;21.02;;
36189;SDS011;22232;50.914;13.858;2023-10-19T04:36:01;32.03;;;20.27;;
36189;SDS011;22232;50.914;13.858;2023-10-19T04:38:29;31.40;;;20.35;;
36189;SDS011;22232;50.914;13.858;2023-10-19T04:41:07;37.67;;;21.15;;
36189;SDS011;22232;50.914;13.858;2023-10-19T04:43:36;33.30;;;20.40;;
36189;SDS011;22232;50.914;13.858;2023-10-19T04:46:07;33.70;;;19.95;;
36189;SDS011;22232;50.914;13.858;2023-10-19T04:48:39;31.77;;;20.10;;
36189;SDS011;22232;50.914;13.858;2023-10-19T04:51:07;35.03;;;20.50;;
36189;SDS011;22232;50.914;13.858;2023-10-19T04:53:38;32.13;;;21.05;;
36189;SDS011;22232;50.914;13.858;2023-10-19T04:56:08;35.08;;;21.77;;
36189;SDS011;22232;50.914;13.858;2023-10-19T04:58:36;37.28;;;22.67;;
36189;SDS011;22232;50.914;13.858;2023-10-19T05:01:04;36.20;;;22.55;;
36189;SDS011;22232;50.914;13.858;2023-10-19T05:03:32;35.58;;;22.38;;
36189;SDS011;22232;50.914;13.858;2023-10-19T05:06:00;34.50;;;22.02;;
36189;SDS011;22232;50.914;13.858;2023-10-19T05:08:28;35.53;;;23.50;;
36189;SDS011;22232;50.914;13.858;2023-10-19T05:10:57;41.35;;;24.65;;
36189;SDS011;22232;50.914;13.858;2023-10-19T05:13:26;40.45;;;23.92;;
36189;SDS011;22232;50.914;13.858;2023-10-19T05:15:54;37.50;;;23.70;;
36189;SDS011;22232;50.914;13.858;2023-10-19T05:18:22;41.42;;;24.35;;
36189;SDS011;22232;50.914;13.858;2023-10-19T05:20:50;37.28;;;23.58;;
36189;SDS011;22232;50.914;13.858;2023-10-19T05:23:25;35.13;;;23.25;;
36189;SDS011;22232;50.914;13.858;2023-10-19T05:26:02;43.10;;;25.42;;
36189;SDS011;22232;50.914;13.858;2023-10-19T05:28:31;45.20;;;24.77;;
36189;SDS011;22232;50.914;13.858;2023-10-19T05:30:58;42.22;;;25.27;;
36189;SDS011;22232;50.914;13.858;2023-10-19T05:33:27;45.63;;;27.75;;
36189;SDS011;22232;50.914;13.858;2023-10-19T05:35:57;45.25;;;27.73;;
36189;SDS011;22232;50.914;13.858;2023-10-19T05:38:24;44.63;;;26.75;;
36189;SDS011;22232;50.914;13.858;2023-10-19T05:40:52;47.13;;;28.02;;
36189;SDS011;22232;50.914;13.858;2023-10-19T05:43:22;45.60;;;28.00;;
36189;SDS011;22232;50.914;13.858;2023-10-19T05:45:50;44.78;;;27.00;;
36189;SDS011;22232;50.914;13.858;2023-10-19T05:48:19;44.90;;;27.58;;
36189;SDS011;22232;50.914;13.858;2023-10-19T05:50:47;47.17;;;28.58;;
36189;SDS011;22232;50.914;13.858;2023-10-19T05:53:16;52.13;;;29.83;;
36189;SDS011;22232;50.914;13.858;2023-10-19T05:55:45;50.40;;;28.98;;
36189;SDS011;22232;50.914;13.858;2023-10-19T05:58:13;48.10;;;29.35;;
36189;SDS011;22232;50.914;13.858;2023-10-19T06:00:41;47.95;;;29.10;;
36189;SDS011;22232;50.914;13.858;2023-10-19T06:03:09;51.50;;;29.45;;
36189;SDS011;22232;50.914;13.858;2023-10-19T06:05:37;48.35;;;29.70;;
36189;SDS011;22232;50.914;13.858;2023-10-19T06:08:04;50.22;;;30.70;;
36189;SDS011;22232;50.914;13.858;2023-10-19T06:10:32;51.53;;;30.38;;
36189;SDS011;22232;50.914;13.858;2023-10-19T06:13:00;48.75;;;28.67;;
36189;SDS011;22232;50.914;13.858;2023-10-19T06:15:27;46.67;;;28.67;;
36189;SDS011;22232;50.914;13.858;2023-10-19T06:17:58;50.30;;;29.27;;
36189;SDS011;22232;50.914;13.858;2023-10-19T06:20:26;46.78;;;28.35;;
36189;SDS011;22232;50.914;13.858;2023-10-19T06:22:54;50.42;;;28.88;;
36189;SDS011;22232;50.914;13.858;2023-10-19T06:25:24;46.47;;;27.70;;
36189;SDS011;22232;50.914;13.858;2023-10-19T06:27:52;43.63;;;27.85;;
36189;SDS011;22232;50.914;13.858;2023-10-19T06:30:21;48.53;;;29.73;;
36189;SDS011;22232;50.914;13.858;2023-10-19T06:32:50;45.92;;;28.83;;
36189;SDS011;22232;50.914;13.858;2023-10-19T06:35:21;46.70;;;28.23;;
36189;SDS011;22232;50.914;13.858;2023-10-19T06:37:49;47.63;;;28.20;;
36189;SDS011;22232;50.914;13.858;2023-10-19T06:40:17;46.08;;;28.52;;
36189;SDS011;22232;50.914;13.858;2023-10-19T06:42:45;47.90;;;29.20;;
36189;SDS011;22232;50.914;13.858;2023-10-19T06:45:13;50.60;;;28.55;;
36189;SDS011;22232;50.914;13.858;2023-10-19T06:47:43;48.67;;;27.65;;
36189;SDS011;22232;50.914;13.858;2023-10-19T06:50:13;48.58;;;27.60;;
36189;SDS011;22232;50.914;13.858;2023-10-19T06:52:45;45.58;;;26.60;;
36189;SDS011;22232;50.914;13.858;2023-10-19T06:55:18;40.53;;;25.35;;
36189;SDS011;22232;50.914;13.858;2023-10-19T06:57:50;39.47;;;25.67;;
36189;SDS011;22232;50.914;13.858;2023-10-19T07:00:20;44.15;;;26.00;;
36189;SDS011;22232;50.914;13.858;2023-10-19T07:02:50;41.40;;;26.58;;
36189;SDS011;22232;50.914;13.858;2023-10-19T07:05:18;39.88;;;26.35;;
36189;SDS011;22232;50.914;13.858;2023-10-19T07:07:52;40.60;;;26.02;;
36189;SDS011;22232;50.914;13.858;2023-10-19T07:10:22;40.22;;;25.02;;
36189;SDS011;22232;50.914;13.858;2023-10-19T07:12:51;40.22;;;25.30;;
36189;SDS011;22232;50.914;13.858;2023-10-19T07:15:20;43.03;;;24.88;;
36189;SDS011;22232;50.914;13.858;2023-10-19T07:17:52;40.67;;;24.50;;
36189;SDS011;22232;50.914;13.858;2023-10-19T07:20:24;43.05;;;25.65;;
36189;SDS011;22232;50.914;13.858;2023-10-19T07:22:58;41.55;;;26.02;;
36189;SDS011;22232;50.914;13.858;2023-10-19T07:25:45;48.80;;;27.80;;
36189;SDS011;22232;50.914;13.858;2023-10-19T07:28:23;51.53;;;28.58;;
36189;SDS011;22232;50.914;13.858;2023-10-19T07:30:54;47.75;;;28.08;;
36189;SDS011;22232;50.914;13.858;2023-10-19T07:33:34;46.00;;;28.50;;
36189;SDS011;22232;50.914;13.858;2023-10-19T07:36:11;45.25;;;28.42;;
36189;SDS011;22232;50.914;13.858;2023-10-19T07:38:41;44.72;;;28.58;;
36189;SDS011;22232;50.914;13.858;2023-10-19T07:41:13;46.08;;;28.83;;
36189;SDS011;22232;50.914;13.858;2023-10-19T07:43:41;48.38;;;28.98;;
36189;SDS011;22232;50.914;13.858;2023-10-19T07:46:10;47.65;;;28.80;;
36189;SDS011;22232;50.914;13.858;2023-10-19T07:48:39;46.92;;;28.45;;
36189;SDS011;22232;50.914;13.858;2023-10-19T07:51:07;48.92;;;29.58;;
36189;SDS011;22232;50.914;13.858;2023-10-19T07:53:38;48.47;;;29.77;;
36189;SDS011;22232;50.914;13.858;2023-10-19T07:56:05;48.08;;;28.10;;
36189;SDS011;22232;50.914;13.858;2023-10-19T07:58:34;46.53;;;29.23;;
36189;SDS011;22232;50.914;13.858;2023-10-19T08:01:01;47.95;;;29.45;;
36189;SDS011;22232;50.914;13.858;2023-10-19T08:03:29;45.60;;;28.15;;
36189;SDS011;22232;50.914;13.858;2023-10-19T08:05:57;46.88;;;27.60;;
36189;SDS011;22232;50.914;13.858;2023-10-19T08:08:24;45.03;;;27.45;;
36189;SDS011;22232;50.914;13.858;2023-10-19T08:10:52;47.22;;;28.67;;
36189;SDS011;22232;50.914;13.858;2023-10-19T08:13:20;48.67;;;28.80;;
36189;SDS011;22232;50.914;13.858;2023-10-19T08:15:47;46.75;;;29.02;;
36189;SDS011;22232;50.914;13.858;2023-10-19T08:18:15;43.90;;;27.52;;
36189;SDS011;22232;50.914;13.858;2023-10-19T08:20:43;40.03;;;26.02;;
36189;SDS011;22232;50.914;13.858;2023-10-19T08:23:16;42.40;;;26.73;;
36189;SDS011;22232;50.914;13.858;2023-10-19T08:25:50;43.72;;;26.83;;
36189;SDS011;22232;50.914;13.858;2023-10-19T08:28:23;36.70;;;22.75;;
36189;SDS011;22232;50.914;13.858;2023-10-19T08:30:52;38.47;;;24.52;;
36189;SDS011;22232;50.914;13.858;2023-10-19T08:33:28;35.65;;;22.98;;
36189;SDS011;22232;50.914;13.858;2023-10-19T08:35:57;36.15;;;22.92;;
36189;SDS011;22232;50.914;13.858;2023-10-19T08:38:27;38.80;;;23.58;;
36189;SDS011;22232;50.914;13.858;2023-10-19T08:40:56;36.40;;;23.25;;
36189;SDS011;22232;50.914;13.858;2023-10-19T08:43:24;36.45;;;21.75;;
36189;SDS011;22232;50.914;13.858;2023-10-19T08:45:53;34.80;;;21.70;;
36189;SDS011;22232;50.914;13.858;2023-10-19T08:48:22;30.20;;;19.27;;
36189;SDS011;22232;50.914;13.858;2023-10-19T08:50:49;28.42;;;18.33;;
36189;SDS011;22232;50.914;13.858;2023-10-19T08:53:18;26.83;;;17.52;;
36189;SDS011;22232;50.914;13.858;2023-10-19T08:55:48;22.95;;;16.17;;
36189;SDS011;22232;50.914;13.858;2023-10-19T08:58:18;22.75;;;15.57;;
36189;SDS011;22232;50.914;13.858;2023-10-19T09:00:48;19.83;;;14.05;;
36189;SDS011;22232;50.914;13.858;2023-10-19T09:03:23;20.50;;;13.55;;
36189;SDS011;22232;50.914;13.858;2023-10-19T09:05:53;20.60;;;13.45;;
36189;SDS011;22232;50.914;13.858;2023-10-19T09:08:21;20.00;;;13.80;;
36189;SDS011;22232;50.914;13.858;2023-10-19T09:10:50;17.92;;;12.82;;
36189;SDS011;22232;50.914;13.858;2023-10-19T09:13:22;18.40;;;13.38;;
36189;SDS011;22232;50.914;13.858;2023-10-19T09:15:51;20.88;;;13.50;;
36189;SDS011;22232;50.914;13.858;2023-10-19T09:18:24;18.20;;;12.55;;
36189;SDS011;22232;50.914;13.858;2023-10-19T09:20:57;16.65;;;12.32;;
36189;SDS011;22232;50.914;13.858;2023-10-19T09:23:35;18.63;;;13.55;;
36189;SDS011;22232;50.914;13.858;2023-10-19T09:26:04;19.55;;;13.93;;
36189;SDS011;22232;50.914;13.858;2023-10-19T09:28:36;21.02;;;14.50;;
36189;SDS011;22232;50.914;13.858;2023-10-19T09:31:05;20.98;;;14.50;;
36189;SDS011;22232;50.914;13.858;2023-10-19T09:33:37;21.08;;;14.27;;
36189;SDS011;22232;50.914;13.858;2023-10-19T09:36:08;22.15;;;14.75;;
36189;SDS011;22232;50.914;13.858;2023-10-19T09:38:43;23.15;;;15.52;;
36189;SDS011;22232;50.914;13.858;2023-10-19T09:41:17;22.33;;;15.57;;
36189;SDS011;22232;50.914;13.858;2023-10-19T09:43:49;20.85;;;15.40;;
36189;SDS011;22232;50.914;13.858;2023-10-19T09:46:22;27.70;;;18.02;;
36189;SDS011;22232;50.914;13.858;2023-10-19T09:48:51;25.85;;;16.75;;
36189;SDS011;22232;50.914;13.858;2023-10-19T09:51:19;23.40;;;16.33;;
36189;SDS011;22232;50.914;13.858;2023-10-19T09:53:49;25.52;;;17.42;;
36189;SDS011;22232;50.914;13.858;2023-10-19T09:56:21;24.38;;;16.67;;
36189;SDS011;22232;50.914;13.858;2023-10-19T09:58:55;25.90;;;17.85;;
36189;SDS011;22232;50.914;13.858;2023-10-19T10:01:37;28.52;;;17.20;;
36189;SDS011;22232;50.914;13.858;2023-10-19T10:04:41;25.05;;;17.05;;
36189;SDS011;22232;50.914;13.858;2023-10-19T10:07:12;28.02;;;18.30;;
36189;SDS011;22232;50.914;13.858;2023-10-19T10:09:44;24.85;;;17.50;;
36189;SDS011;22232;50.914;13.858;2023-10-19T10:12:19;26.52;;;17.35;;
36189;SDS011;22232;50.914;13.858;2023-10-19T10:14:57;31.15;;;18.55;;
36189;SDS011;22232;50.914;13.858;2023-10-19T10:17:26;29.40;;;17.63;;
36189;SDS011;22232;50.914;13.858;2023-10-19T10:19:55;27.08;;;18.10;;
36189;SDS011;22232;50.914;13.858;2023-10-19T10:22:27;27.63;;;18.63;;
36189;SDS011;22232;50.914;13.858;2023-10-19T10:24:54;29.23;;;19.65;;
36189;SDS011;22232;50.914;13.858;2023-10-19T10:27:23;28.10;;;18.90;;
36189;SDS011;22232;50.914;13.858;2023-10-19T10:29:54;30.75;;;20.15;;
36189;SDS011;22232;50.914;13.858;2023-10-19T10:32:43;30.23;;;20.23;;
36189;SDS011;22232;50.914;13.858;2023-10-19T10:38:10;30.85;;;20.70;;
36189;SDS011;22232;50.914;13.858;2023-10-19T10:40:42;28.23;;;19.35;;
36189;SDS011;22232;50.914;13.858;2023-10-19T10:43:11;31.27;;;20.52;;
36189;SDS011;22232;50.914;13.858;2023-10-19T10:45:39;30.95;;;20.00;;
36189;SDS011;22232;50.914;13.858;2023-10-19T10:48:13;33.50;;;21.10;;
36189;SDS011;22232;50.914;13.858;2023-10-19T10:50:48;30.80;;;20.10;;
36189;SDS011;22232;50.914;13.858;2023-10-19T10:53:16;36.30;;;20.88;;
36189;SDS011;22232;50.914;13.858;2023-10-19T10:55:44;30.42;;;19.98;;
36189;SDS011;22232;50.914;13.858;2023-10-19T10:58:16;31.83;;;19.33;;
36189;SDS011;22232;50.914;13.858;2023-10-19T11:00:44;28.90;;;19.25;;
36189;SDS011;22232;50.914;13.858;2023-10-19T11:03:14;31.13;;;19.45;;
36189;SDS011;22232;50.914;13.858;2023-10-19T11:05:43;27.48;;;19.20;;
36189;SDS011;22232;50.914;13.858;2023-10-19T11:08:14;29.52;;;19.25;;
36189;SDS011;22232;50.914;13.858;2023-10-19T11:10:48;31.50;;;19.13;;
36189;SDS011;22232;50.914;13.858;2023-10-19T11:13:17;28.75;;;18.98;;
36189;SDS011;22232;50.914;13.858;2023-10-19T11:15:52;30.65;;;19.33;;
36189;SDS011;22232;50.914;13.858;2023-10-19T11:18:48;31.25;;;19.10;;
36189;SDS011;22232;50.914;13.858;2023-10-19T11:21:17;30.33;;;19.23;;
36189;SDS011;22232;50.914;13.858;2023-10-19T11:23:46;32.53;;;19.48;;
36189;SDS011;22232;50.914;13.858;2023-10-19T11:26:16;29.13;;;19.48;;
36189;SDS011;22232;50.914;13.858;2023-10-19T11:28:46;28.20;;;19.33;;
36189;SDS011;22232;50.914;13.858;2023-10-19T11:31:21;29.80;;;19.50;;
36189;SDS011;22232;50.914;13.858;2023-10-19T11:33:53;30.10;;;19.38;;
36189;SDS011;22232;50.914;13.858;2023-10-19T11:36:25;29.73;;;19.42;;
36189;SDS011;22232;50.914;13.858;2023-10-19T11:38:53;30.33;;;19.90;;
36189;SDS011;22232;50.914;13.858;2023-10-19T11:41:21;31.70;;;20.52;;
36189;SDS011;22232;50.914;13.858;2023-10-19T11:43:50;28.40;;;19.90;;
36189;SDS011;22232;50.914;13.858;2023-10-19T11:46:17;31.25;;;19.90;;
36189;SDS011;22232;50.914;13.858;2023-10-19T11:48:45;29.70;;;19.60;;
36189;SDS011;22232;50.914;13.858;2023-10-19T11:51:14;28.73;;;18.88;;
36189;SDS011;22232;50.914;13.858;2023-10-19T11:53:42;29.38;;;19.73;;
36189;SDS011;22232;50.914;13.858;2023-10-19T11:56:10;27.17;;;19.08;;
36189;SDS011;22232;50.914;13.858;2023-10-19T11:58:40;26.48;;;18.73;;
36189;SDS011;22232;50.914;13.858;2023-10-19T12:01:15;28.38;;;19.35;;
36189;SDS011;22232;50.914;13.858;2023-10-19T12:03:45;29.27;;;18.15;;
36189;SDS011;22232;50.914;13.858;2023-10-19T12:06:13;28.90;;;18.90;;
36189;SDS011;22232;50.914;13.858;2023-10-19T12:08:51;26.30;;;18.30;;
36189;SDS011;22232;50.914;13.858;2023-10-19T12:11:18;24.73;;;17.48;;
36189;SDS011;22232;50.914;13.858;2023-10-19T12:13:47;26.20;;;17.67;;
36189;SDS011;22232;50.914;13.858;2023-10-19T12:16:15;25.48;;;17.92;;
36189;SDS011;22232;50.914;13.858;2023-10-19T12:18:44;24.58;;;17.27;;
36189;SDS011;22232;50.914;13.858;2023-10-19T12:21:13;28.00;;;18.70;;
36189;SDS011;22232;50.914;13.858;2023-10-19T12:23:42;25.45;;;17.15;;
36189;SDS011;22232;50.914;13.858;2023-10-19T12:26:11;23.58;;;16.60;;
36189;SDS011;22232;50.914;13.858;2023-10-19T12:28:39;26.08;;;17.00;;
36189;SDS011;22232;50.914;13.858;2023-10-19T12:31:08;21.58;;;16.02;;
36189;SDS011;22232;50.914;13.858;2023-10-19T12:33:36;21.58;;;14.65;;
36189;SDS011;22232;50.914;13.858;2023-10-19T12:36:06;25.02;;;16.33;;
36189;SDS011;22232;50.914;13.858;2023-10-19T12:38:52;22.65;;;16.48;;
36189;SDS011;22232;50.914;13.858;2023-10-19T12:41:20;25.55;;;17.73;;
36189;SDS011;22232;50.914;13.858;2023-10-19T12:43:51;22.10;;;16.08;;
36189;SDS011;22232;50.914;13.858;2023-10-19T12:46:20;21.50;;;15.32;;
36189;SDS011;22232;50.914;13.858;2023-10-19T12:48:52;22.52;;;15.45;;
36189;SDS011;22232;50.914;13.858;2023-10-19T12:51:19;21.70;;;15.52;;
36189;SDS011;22232;50.914;13.858;2023-10-19T12:53:53;21.85;;;15.77;;
36189;SDS011;22232;50.914;13.858;2023-10-19T12:56:22;20.65;;;14.88;;
36189;SDS011;22232;50.914;13.858;2023-10-19T12:58:56;21.35;;;15.10;;
36189;SDS011;22232;50.914;13.858;2023-10-19T13:01:24;21.38;;;15.73;;
36189;SDS011;22232;50.914;13.858;2023-10-19T13:03:55;22.95;;;16.17;;
36189;SDS011;22232;50.914;13.858;2023-10-19T13:06:23;23.45;;;15.90;;
36189;SDS011;22232;50.914;13.858;2023-10-19T13:08:56;21.73;;;15.65;;
36189;SDS011;22232;50.914;13.858;2023-10-19T13:11:25;24.05;;;16.30;;
36189;SDS011;22232;50.914;13.858;2023-10-19T13:13:54;21.38;;;15.40;;
36189;SDS011;22232;50.914;13.858;2023-10-19T13:16:22;26.70;;;17.83;;
36189;SDS011;22232;50.914;13.858;2023-10-19T13:18:50;24.15;;;16.50;;
36189;SDS011;22232;50.914;13.858;2023-10-19T13:21:17;26.30;;;16.50;;
36189;SDS011;22232;50.914;13.858;2023-10-19T13:23:49;23.27;;;16.42;;
36189;SDS011;22232;50.914;13.858;2023-10-19T13:26:16;23.77;;;16.13;;
36189;SDS011;22232;50.914;13.858;2023-10-19T13:28:45;23.75;;;15.63;;
36189;SDS011;22232;50.914;13.858;2023-10-19T13:31:14;22.60;;;15.68;;
36189;SDS011;22232;50.914;13.858;2023-10-19T13:33:42;24.40;;;16.20;;
36189;SDS011;22232;50.914;13.858;2023-10-19T13:36:12;23.30;;;15.65;;
36189;SDS011;22232;50.914;13.858;2023-10-19T13:38:41;24.27;;;16.73;;
36189;SDS011;22232;50.914;13.858;2023-10-19T13:41:08;26.63;;;17.45;;
36189;SDS011;22232;50.914;13.858;2023-10-19T13:43:41;25.48;;;17.77;;
36189;SDS011;22232;50.914;13.858;2023-10-19T13:46:12;24.90;;;16.90;;
36189;SDS011;22232;50.914;13.858;2023-10-19T13:48:40;25.25;;;17.15;;
36189;SDS011;22232;50.914;13.858;2023-10-19T13:51:08;22.70;;;17.10;;
36189;SDS011;22232;50.914;13.858;2023-10-19T13:53:46;25.00;;;16.17;;
36189;SDS011;22232;50.914;13.858;2023-10-19T13:56:14;21.50;;;16.33;;
36189;SDS011;22232;50.914;13.858;2023-10-19T13:58:42;24.83;;;16.30;;
36189;SDS011;22232;50.914;13.858;2023-10-19T14:01:10;24.13;;;14.57;;
36189;SDS011;22232;50.914;13.858;2023-10-19T14:03:41;23.45;;;15.90;;
36189;SDS011;22232;50.914;13.858;2023-10-19T14:06:13;23.63;;;16.55;;
36189;SDS011;22232;50.914;13.858;2023-10-19T14:08:41;23.45;;;16.67;;
36189;SDS011;22232;50.914;13.858;2023-10-19T14:11:09;20.35;;;14.50;;
36189;SDS011;22232;50.914;13.858;2023-10-19T14:13:39;22.33;;;14.93;;
36189;SDS011;22232;50.914;13.858;2023-10-19T14:16:10;21.90;;;14.63;;
36189;SDS011;22232;50.914;13.858;2023-10-19T14:18:38;20.30;;;14.30;;
36189;SDS011;22232;50.914;13.858;2023-10-19T14:23:46;18.65;;;13.82;;
36189;SDS011;22232;50.914;13.858;2023-10-19T14:26:15;21.45;;;14.65;;
36189;SDS011;22232;50.914;13.858;2023-10-19T14:28:43;21.27;;;15.55;;
36189;SDS011;22232;50.914;13.858;2023-10-19T14:31:11;22.33;;;16.27;;
36189;SDS011;22232;50.914;13.858;2023-10-19T14:33:39;21.83;;;15.93;;
36189;SDS011;22232;50.914;13.858;2023-10-19T14:36:07;24.25;;;16.05;;
36189;SDS011;22232;50.914;13.858;2023-10-19T14:38:36;21.80;;;14.68;;
36189;SDS011;22232;50.914;13.858;2023-10-19T14:41:05;21.80;;;15.70;;
36189;SDS011;22232;50.914;13.858;2023-10-19T14:43:33;21.55;;;14.55;;
36189;SDS011;22232;50.914;13.858;2023-10-19T14:46:00;20.70;;;15.35;;